Time;durP1;ratioP1;P1;durP2;ratioP2;P2;SDS_P1;SDS_P2;PMS_P1;PMS_P2;Temp;Humidity;BMP_temperature;BMP_pressure;BME280_temperature;BME280_humidity;BME280_pressure;Samples;Min_cycle;Max_cycle;Signal;HPM_P1;HPM_P2
2022/06/10 04:30:41;;;;;;;;;5.00;3.00;;;;;17.76;61.77;101803.44;5006858;28;45730;-79
2022/06/10 04:33:06;;;;;;;;;3.50;3.00;;;;;17.77;61.57;101800.66;5025757;28;45527;-77
2022/06/10 04:35:35;;;;;;;;;4.50;4.50;;;;;17.80;61.90;101807.72;5035163;28;45218;-79
2022/06/10 04:38:01;;;;;;;;;5.25;4.00;;;;;17.87;61.30;101802.78;5035260;28;45584;-80
2022/06/10 04:40:29;;;;;;;;;4.25;3.00;;;;;17.90;61.23;101811.63;5035122;28;46443;-79
2022/06/10 04:42:56;;;;;;;;;3.50;3.50;;;;;17.99;61.47;101818.34;5035199;28;45260;-79
2022/06/10 04:45:25;;;;;;;;;5.00;2.00;;;;;18.03;61.27;101815.34;5035120;28;45187;-79
2022/06/10 04:47:54;;;;;;;;;3.75;3.75;;;;;18.04;61.21;101806.25;5034691;28;45532;-78
2022/06/10 04:50:22;;;;;;;;;4.50;3.00;;;;;17.91;61.26;101788.09;5034651;28;46197;-78
2022/06/10 04:52:48;;;;;;;;;5.00;3.00;;;;;18.01;61.69;101803.75;5034804;28;45273;-78
2022/06/10 04:55:13;;;;;;;;;2.25;2.00;;;;;17.99;61.80;101805.66;5034753;28;45779;-78
2022/06/10 04:57:39;;;;;;;;;3.50;3.00;;;;;17.99;61.87;101810.22;5034676;28;45615;-79
2022/06/10 05:00:07;;;;;;;;;2.75;2.75;;;;;17.97;61.83;101804.88;5035023;28;45400;-79
2022/06/10 05:02:34;;;;;;;;;3.00;3.00;;;;;18.03;61.46;101803.66;5034672;28;45513;-79
2022/06/10 05:04:59;;;;;;;;;2.50;2.00;;;;;17.98;61.74;101797.59;5034708;28;45431;-79
2022/06/10 05:07:25;;;;;;;;;2.50;2.50;;;;;18.05;61.93;101810.72;5016719;28;45321;-79
2022/06/10 05:09:50;;;;;;;;;7.50;3.50;;;;;17.96;61.36;101789.56;5034297;28;45312;-78
2022/06/10 05:12:15;;;;;;;;;3.00;2.75;;;;;18.11;61.57;101804.06;5034570;28;45557;-79
2022/06/10 05:14:41;;;;;;;;;3.50;3.50;;;;;18.04;61.46;101799.94;5034890;28;45363;-80
2022/06/10 05:17:06;;;;;;;;;3.25;3.00;;;;;18.08;61.44;101799.69;5034343;28;45309;-80
2022/06/10 05:19:32;;;;;;;;;2.25;2.25;;;;;18.15;61.52;101801.06;5034043;28;46165;-78
2022/06/10 05:21:57;;;;;;;;;5.00;3.50;;;;;17.92;61.42;101765.44;5034838;28;45360;-80
2022/06/10 05:24:23;;;;;;;;;4.25;3.00;;;;;18.14;61.55;101809.28;5035700;28;45371;-78
2022/06/10 05:26:49;;;;;;;;;9.50;3.00;;;;;18.17;61.52;101790.13;5035170;28;45576;-83
2022/06/10 05:29:14;;;;;;;;;3.50;3.50;;;;;18.20;61.34;101787.22;5038400;28;45346;-77
2022/06/10 05:31:40;;;;;;;;;3.50;3.50;;;;;18.33;61.34;101801.78;5039958;28;45428;-75
2022/06/10 05:36:51;;;;;;;;;2.00;2.00;;;;;18.38;61.48;101818.66;5014136;28;45479;-75
2022/06/10 05:39:17;;;;;;;;;4.00;3.00;;;;;18.32;61.25;101813.59;5013739;28;47363;-77
2022/06/10 05:44:26;;;;;;;;;4.25;3.00;;;;;18.43;61.01;101813.81;5014256;28;45372;-75
2022/06/10 05:46:55;;;;;;;;;2.50;2.00;;;;;18.43;60.97;101819.25;5013796;28;45525;-77
2022/06/10 05:49:22;;;;;;;;;2.50;2.50;;;;;18.39;61.13;101819.53;5013768;28;45574;-75
2022/06/10 05:51:47;;;;;;;;;4.00;3.00;;;;;18.41;61.34;101820.31;5013613;28;45273;-74
2022/06/10 05:54:13;;;;;;;;;2.00;2.00;;;;;18.40;61.28;101829.41;5013959;28;45262;-76
2022/06/10 05:56:40;;;;;;;;;2.00;1.50;;;;;18.36;61.23;101822.44;5013936;28;45267;-75
2022/06/10 05:59:06;;;;;;;;;8.50;2.50;;;;;18.51;61.10;101844.09;5013854;28;45414;-77
2022/06/10 06:01:31;;;;;;;;;2.75;1.50;;;;;18.50;61.12;101841.47;4996070;28;45264;-74
2022/06/10 06:03:56;;;;;;;;;2.25;2.25;;;;;18.41;61.37;101836.59;5015404;28;45299;-78
2022/06/10 06:06:22;;;;;;;;;3.25;3.25;;;;;18.55;61.26;101852.91;5017281;28;45455;-77
2022/06/10 06:08:48;;;;;;;;;2.00;2.00;;;;;18.53;61.22;101846.72;5017279;28;45386;-75
2022/06/10 06:11:15;;;;;;;;;1.50;1.50;;;;;18.48;61.35;101837.97;4999777;28;45365;-76
2022/06/10 06:13:42;;;;;;;;;2.50;2.00;;;;;18.56;61.28;101851.94;5017440;28;45517;-74
2022/06/10 06:16:11;;;;;;;;;2.50;2.50;;;;;18.49;60.97;101850.56;5017182;28;45428;-76
2022/06/10 06:18:36;;;;;;;;;1.00;1.00;;;;;18.47;61.72;101857.94;5017040;28;45954;-74
2022/06/10 06:21:02;;;;;;;;;3.25;1.25;;;;;18.50;61.44;101858.63;5017125;28;45423;-77
2022/06/10 06:23:28;;;;;;;;;3.50;2.00;;;;;18.43;61.29;101854.56;5017201;28;45387;-77
2022/06/10 06:25:53;;;;;;;;;3.75;3.00;;;;;18.51;61.65;101854.09;5021069;28;45650;-76
2022/06/10 06:28:19;;;;;;;;;3.50;3.50;;;;;18.57;61.28;101851.00;5037292;28;46111;-76
2022/06/10 06:30:44;;;;;;;;;4.25;4.25;;;;;18.49;61.57;101848.75;5036537;28;45641;-75
2022/06/10 06:33:09;;;;;;;;;1.75;1.75;;;;;18.51;61.56;101848.66;5026764;28;45518;-76
2022/06/10 06:35:37;;;;;;;;;2.00;2.00;;;;;18.56;61.65;101857.38;5016816;28;45556;-77
2022/06/10 06:38:04;;;;;;;;;3.00;3.00;;;;;18.65;61.27;101862.28;5016835;28;45438;-77
2022/06/10 06:40:30;;;;;;;;;3.75;3.75;;;;;18.76;61.23;101857.06;5032164;28;45631;-77
2022/06/10 06:42:55;;;;;;;;;3.50;2.00;;;;;18.93;60.94;101858.72;5034384;28;45403;-77
2022/06/10 06:45:22;;;;;;;;;2.50;2.50;;;;;19.02;60.61;101852.69;5035469;28;46135;-76
2022/06/10 06:47:48;;;;;;;;;6.50;3.00;;;;;19.13;60.21;101861.06;5036506;28;45391;-75
2022/06/10 06:50:18;;;;;;;;;3.25;3.25;;;;;19.13;60.17;101850.19;5035622;28;45870;-77
2022/06/10 06:52:43;;;;;;;;;2.00;2.00;;;;;19.22;59.60;101854.16;5031199;28;45514;-78
2022/06/10 06:55:10;;;;;;;;;1.00;1.00;;;;;19.17;59.05;101835.41;5028816;28;45412;-76
2022/06/10 06:57:36;;;;;;;;;4.00;2.00;;;;;19.26;59.06;101844.81;5016482;28;48600;-78
2022/06/10 07:00:06;;;;;;;;;3.00;2.50;;;;;19.31;59.41;101856.25;5036085;28;45359;-79
2022/06/10 07:02:35;;;;;;;;;2.00;1.00;;;;;19.28;59.30;101854.63;5035184;28;45396;-79
2022/06/10 07:05:02;;;;;;;;;1.75;1.25;;;;;19.23;59.13;101853.16;5035891;28;45507;-76
2022/06/10 07:07:28;;;;;;;;;2.75;2.75;;;;;19.25;59.19;101857.53;5035925;28;45420;-78
2022/06/10 07:09:54;;;;;;;;;3.50;2.75;;;;;19.27;59.47;101855.59;5036376;28;45435;-77
2022/06/10 07:12:19;;;;;;;;;3.00;1.00;;;;;19.29;59.25;101847.34;5036542;28;45525;-78
2022/06/10 07:14:44;;;;;;;;;2.75;2.25;;;;;19.26;59.29;101840.25;5021254;28;45458;-77
2022/06/10 07:17:11;;;;;;;;;1.00;1.00;;;;;19.24;58.74;101833.16;5036194;28;46253;-77
2022/06/10 07:19:37;;;;;;;;;3.25;2.00;;;;;19.32;58.52;101855.28;5035964;28;45351;-76
2022/06/10 07:22:06;;;;;;;;;2.00;2.00;;;;;19.32;57.64;101854.41;5036030;28;45289;-78
2022/06/10 07:24:32;;;;;;;;;0.50;0.25;;;;;19.17;57.53;101834.53;5035807;28;45857;-78
2022/06/10 07:27:00;;;;;;;;;3.25;1.50;;;;;19.32;58.01;101851.69;5036149;28;46046;-80
2022/06/10 07:29:27;;;;;;;;;2.25;2.25;;;;;19.42;58.52;101852.84;5037569;28;45277;-77
2022/06/10 07:31:52;;;;;;;;;4.50;1.75;;;;;19.47;57.78;101858.88;5037497;28;45337;-77
2022/06/10 07:34:17;;;;;;;;;1.00;1.00;;;;;19.37;57.94;101833.25;4999333;28;45271;-79
2022/06/10 07:36:43;;;;;;;;;1.00;1.00;;;;;19.53;58.25;101856.66;4998023;28;46257;-79
2022/06/10 07:39:08;;;;;;;;;2.00;2.00;;;;;19.63;58.00;101867.81;5015668;28;45206;-79
2022/06/10 07:44:20;;;;;;;;;2.00;2.00;;;;;19.82;56.90;101871.03;5024641;28;45226;-77
2022/06/10 07:46:47;;;;;;;;;0.50;0.50;;;;;19.96;56.48;101876.44;5035083;28;46223;-77
2022/06/10 07:49:12;;;;;;;;;1.25;1.25;;;;;20.09;56.12;101871.03;5036952;28;45313;-76
2022/06/10 07:51:38;;;;;;;;;2.00;1.50;;;;;20.14;55.66;101870.72;5036463;28;45258;-79
2022/06/10 07:54:04;;;;;;;;;3.00;3.00;;;;;20.08;55.56;101852.94;5035515;28;45564;-77
2022/06/10 07:56:29;;;;;;;;;2.25;2.25;;;;;20.17;53.74;101867.78;5035356;28;46084;-77
2022/06/10 07:58:58;;;;;;;;;1.00;1.00;;;;;20.07;54.42;101850.34;5035830;28;45273;-78
2022/06/10 08:01:24;;;;;;;;;1.75;1.75;;;;;20.20;54.59;101860.28;5035135;28;45626;-79
2022/06/10 08:03:50;;;;;;;;;0.00;0.00;;;;;20.23;54.12;101868.25;5035516;28;45562;-78
2022/06/10 08:06:16;;;;;;;;;3.75;1.00;;;;;20.28;54.28;101870.66;5034861;28;45908;-77
2022/06/10 08:08:42;;;;;;;;;1.00;1.00;;;;;20.29;53.90;101880.56;5035374;28;45548;-79
2022/06/10 08:11:08;;;;;;;;;2.00;2.00;;;;;20.15;54.16;101842.53;5035299;28;45494;-75
2022/06/10 08:13:33;;;;;;;;;1.50;1.50;;;;;20.25;54.38;101849.94;5035718;28;45375;-77
2022/06/10 08:15:58;;;;;;;;;2.00;2.00;;;;;20.35;54.04;101861.09;5035360;28;45788;-78
2022/06/10 08:18:24;;;;;;;;;2.00;2.00;;;;;20.45;54.22;101858.63;5035088;28;45424;-76
2022/06/10 08:23:35;;;;;;;;;2.50;1.25;;;;;20.51;53.98;101855.47;5035600;28;45472;-77
2022/06/10 08:26:06;;;;;;;;;1.00;1.00;;;;;20.50;52.51;101842.84;5036503;28;45927;-76
2022/06/10 08:28:31;;;;;;;;;1.00;1.00;;;;;20.45;52.87;101832.25;5038449;28;45478;-76
2022/06/10 08:30:57;;;;;;;;;1.50;1.50;;;;;20.60;53.03;101835.75;5036831;28;45404;-78
2022/06/10 08:33:22;;;;;;;;;1.00;1.00;;;;;20.76;53.13;101847.31;5022947;28;45659;-76
2022/06/10 08:35:48;;;;;;;;;0.50;0.50;;;;;20.74;53.58;101831.09;5015303;28;46106;-76
2022/06/10 08:38:15;;;;;;;;;1.50;1.00;;;;;20.94;52.15;101837.81;5015219;28;45396;-77
2022/06/10 08:41:06;;;;;;;;;0.00;0.00;;;;;20.92;51.24;101847.09;5015642;28;45259;-76
2022/06/10 08:44:15;;;;;;;;;1.00;1.00;;;;;20.83;51.63;101824.09;5015166;28;45455;-76
2022/06/10 08:47:11;;;;;;;;;1.00;1.00;;;;;20.93;52.14;101838.78;5014917;28;45501;-77
2022/06/10 08:49:55;;;;;;;;;0.25;0.00;;;;;20.97;51.23;101844.91;5015312;28;45500;-78
2022/06/10 08:52:29;;;;;;;;;1.00;1.00;;;;;21.02;50.85;101842.72;5023745;28;45556;-76
2022/06/10 08:55:05;;;;;;;;;0.75;0.75;;;;;21.15;50.34;101844.47;5034817;28;45530;-77
2022/06/10 08:57:37;;;;;;;;;0.00;0.00;;;;;21.16;46.87;101834.41;5034821;28;46275;-75
2022/06/10 09:00:24;;;;;;;;;0.75;0.25;;;;;21.16;47.49;101842.59;5035106;28;45895;-77
2022/06/10 09:02:56;;;;;;;;;1.25;1.25;;;;;21.21;47.40;101855.91;5016670;28;45436;-78
2022/06/10 09:05:34;;;;;;;;;1.00;1.00;;;;;21.13;48.37;101848.28;5034957;28;46992;-76
2022/06/10 09:08:04;;;;;;;;;2.75;0.75;;;;;21.09;49.25;101847.63;5034406;28;46611;-77
2022/06/10 09:10:42;;;;;;;;;0.00;0.00;;;;;21.11;49.59;101842.03;5034660;28;45309;-77
2022/06/10 09:13:40;;;;;;;;;1.25;1.25;;;;;21.17;49.09;101838.03;5017290;28;45395;-79
2022/06/10 09:16:20;;;;;;;;;2.50;2.00;;;;;21.21;49.09;101839.56;5035015;28;45389;-77
2022/06/10 09:19:12;;;;;;;;;0.25;0.25;;;;;21.29;49.18;101835.28;5016741;28;46613;-77
2022/06/10 09:22:09;;;;;;;;;2.00;1.00;;;;;21.24;47.33;101823.84;5039901;28;45419;-78
2022/06/10 09:24:34;;;;;;;;;1.25;1.25;;;;;21.35;47.20;101842.16;5036151;28;45274;-77
2022/06/10 09:27:12;;;;;;;;;0.50;0.00;;;;;21.39;48.36;101839.09;5016473;28;46427;-77
2022/06/10 09:29:38;;;;;;;;;0.00;0.00;;;;;21.36;47.86;101830.25;5035287;28;45402;-77
2022/06/10 09:32:08;;;;;;;;;1.75;1.00;;;;;21.38;47.99;101831.88;5034724;28;45506;-79
2022/06/10 09:34:52;;;;;;;;;0.25;0.25;;;;;21.45;48.60;101835.91;5016235;28;45218;-77
2022/06/10 09:37:24;;;;;;;;;0.50;0.50;;;;;21.51;47.85;101838.19;5013867;28;45282;-78
2022/06/10 09:43:02;;;;;;;;;1.00;1.00;;;;;21.51;47.79;101849.09;5013939;28;45388;-77
2022/06/10 09:45:37;;;;;;;;;0.00;0.00;;;;;21.47;47.69;101853.03;5020713;28;45411;-77
2022/06/10 09:48:27;;;;;;;;;0.75;0.75;;;;;21.44;47.72;101841.47;5014344;28;45387;-77
2022/06/10 09:50:55;;;;;;;;;1.00;1.00;;;;;21.47;47.23;101847.56;5007593;28;45433;-75
2022/06/10 09:53:41;;;;;;;;;1.00;1.00;;;;;21.37;48.07;101843.78;5034012;28;45547;-79
2022/06/10 09:56:24;;;;;;;;;1.50;0.25;;;;;21.40;48.46;101843.56;5035159;28;45373;-76
2022/06/10 09:59:16;;;;;;;;;1.75;1.75;;;;;21.39;48.66;101854.59;5034737;28;45372;-78
2022/06/10 10:01:58;;;;;;;;;0.75;0.75;;;;;21.44;48.72;101844.19;5033813;28;46229;-79
2022/06/10 10:04:40;;;;;;;;;2.00;1.00;;;;;21.50;49.12;101849.22;5016470;28;45416;-76
2022/06/10 10:07:18;;;;;;;;;0.00;0.00;;;;;21.57;49.87;101861.41;5024039;28;45285;-76
2022/06/10 10:10:06;;;;;;;;;2.00;1.75;;;;;21.56;49.64;101853.34;5016585;28;45518;-76
2022/06/10 10:13:10;;;;;;;;;1.25;1.00;;;;;21.61;49.98;101862.03;5037208;28;45533;-78
2022/06/10 10:15:53;;;;;;;;;4.00;1.75;;;;;21.58;50.03;101856.81;4955530;28;45556;-78
2022/06/10 10:18:26;;;;;;;;;1.00;1.00;;;;;21.68;49.98;101866.94;4961719;28;45389;-77
2022/06/10 10:21:11;;;;;;;;;2.25;2.25;;;;;21.78;50.50;101856.19;5001567;28;45361;-79
2022/06/10 10:23:47;;;;;;;;;2.25;1.00;;;;;21.71;50.92;101823.03;5034105;28;45341;-79
2022/06/10 10:26:26;;;;;;;;;9.75;9.75;;;;;21.97;50.32;101861.13;5020628;28;45514;-78
2022/06/10 10:29:01;;;;;;;;;7.50;7.50;;;;;22.05;50.64;101856.88;5016553;28;45278;-78
2022/06/10 10:31:32;;;;;;;;;2.00;2.00;;;;;22.04;50.18;101857.84;5033852;28;45429;-78
2022/06/10 10:34:01;;;;;;;;;5.00;4.00;;;;;22.00;50.29;101850.03;5016929;28;45475;-81
2022/06/10 10:36:30;;;;;;;;;1.50;1.50;;;;;22.07;50.76;101856.75;5013848;28;45351;-81
2022/06/10 10:38:57;;;;;;;;;2.25;2.00;;;;;22.02;50.42;101859.84;4996437;28;45452;-80
2022/06/10 10:41:30;;;;;;;;;1.00;1.00;;;;;22.01;50.46;101840.84;4995348;28;47374;-81
2022/06/10 10:44:00;;;;;;;;;1.00;1.00;;;;;22.16;50.67;101858.78;5013390;28;46025;-79
2022/06/10 10:46:28;;;;;;;;;4.00;4.00;;;;;22.26;50.56;101851.63;5014011;28;45344;-79
2022/06/10 10:48:57;;;;;;;;;17.50;15.75;;;;;22.10;50.38;101832.81;5020754;28;45414;-76
2022/06/10 10:51:31;;;;;;;;;4.00;4.00;;;;;22.26;50.38;101844.31;5037116;28;45511;-80
2022/06/10 10:54:06;;;;;;;;;11.75;8.75;;;;;22.36;50.57;101844.47;5036759;28;45496;-77
2022/06/10 10:56:36;;;;;;;;;1.25;1.25;;;;;22.37;50.03;101829.78;5036946;28;45343;-76
2022/06/10 10:59:02;;;;;;;;;2.00;2.00;;;;;22.37;50.14;101835.25;5037474;28;45433;-80
2022/06/10 11:01:51;;;;;;;;;3.00;2.00;;;;;22.48;50.32;101845.34;5037831;28;45392;-78
2022/06/10 11:04:25;;;;;;;;;2.50;2.50;;;;;22.56;50.09;101843.75;5040197;28;45463;-80
2022/06/10 11:07:18;;;;;;;;;12.00;12.00;;;;;22.48;49.92;101840.75;5044104;28;45362;-79
2022/06/10 11:09:47;;;;;;;;;9.25;7.00;;;;;22.45;50.31;101834.69;5037306;28;45535;-77
2022/06/10 11:12:16;;;;;;;;;1.75;1.75;;;;;22.46;49.71;101847.31;5030128;28;45432;-76
2022/06/10 11:14:47;;;;;;;;;1.00;1.00;;;;;22.47;49.72;101840.88;5034816;28;45424;-76
2022/06/10 11:17:17;;;;;;;;;1.75;1.75;;;;;22.53;49.88;101849.47;5032291;28;45524;-77
2022/06/10 11:20:07;;;;;;;;;16.25;16.00;;;;;22.58;49.52;101846.38;5032055;28;45447;-79
2022/06/10 11:22:36;;;;;;;;;1.00;1.00;;;;;22.70;49.39;101845.41;5030676;28;45495;-77
2022/06/10 11:25:14;;;;;;;;;2.00;2.00;;;;;22.76;49.02;101855.00;5016509;28;46226;-76
2022/06/10 11:28:01;;;;;;;;;1.50;1.50;;;;;22.70;48.87;101847.28;5014517;28;46097;-77
2022/06/10 11:30:37;;;;;;;;;5.25;3.00;;;;;22.87;48.79;101855.91;5031849;28;45256;-77
2022/06/10 11:33:06;;;;;;;;;3.00;3.00;;;;;22.98;48.62;101850.44;5012871;28;45438;-77
2022/06/10 11:35:40;;;;;;;;;3.50;3.50;;;;;23.02;48.34;101843.72;5016043;28;46089;-77
2022/06/10 11:38:09;;;;;;;;;4.75;1.25;;;;;22.96;48.56;101860.66;5016232;28;45360;-79
2022/06/10 11:40:50;;;;;;;;;2.00;2.00;;;;;22.99;48.07;101840.38;5016212;28;45268;-77
2022/06/10 11:43:37;;;;;;;;;2.00;2.00;;;;;22.97;48.22;101832.28;5014185;28;45429;-79
2022/06/10 11:46:17;;;;;;;;;2.25;2.25;;;;;23.09;48.46;101821.34;4996303;28;45450;-77
2022/06/10 11:48:59;;;;;;;;;3.50;2.00;;;;;23.22;48.48;101835.78;4978006;28;45811;-78
2022/06/10 11:51:30;;;;;;;;;4.50;2.00;;;;;23.27;48.45;101836.25;4993204;28;45395;-76
2022/06/10 11:54:08;;;;;;;;;2.25;2.00;;;;;23.36;47.37;101830.03;4991627;28;45614;-76
2022/06/10 12:00:03;;;;;;;;;2.50;1.75;;;;;23.70;46.77;101828.13;5015240;28;45403;-76
2022/06/10 12:02:38;;;;;;;;;2.00;2.00;;;;;23.82;46.88;101831.72;5012712;28;45352;-78
2022/06/10 12:05:25;;;;;;;;;3.00;1.25;;;;;23.83;46.46;101847.13;4992278;28;45559;-77
2022/06/10 12:08:02;;;;;;;;;0.75;0.75;;;;;23.88;46.70;101817.50;5012069;28;45337;-77
2022/06/10 12:10:36;;;;;;;;;1.00;1.00;;;;;23.99;47.27;101804.59;5000310;28;45304;-77
2022/06/10 12:13:02;;;;;;;;;2.25;2.25;;;;;24.05;46.40;101798.63;4995803;28;45613;-76
2022/06/10 12:15:34;;;;;;;;;3.50;3.25;;;;;24.24;46.69;101822.59;4995703;28;45373;-77
2022/06/10 12:18:03;;;;;;;;;1.00;1.00;;;;;24.39;45.93;101818.53;5002555;28;46225;-77
2022/06/10 12:20:32;;;;;;;;;1.75;1.75;;;;;24.52;45.28;101821.06;5014612;28;45361;-78
2022/06/10 12:23:05;;;;;;;;;2.00;2.00;;;;;24.58;45.52;101817.78;5015333;28;45399;-79
2022/06/10 12:25:52;;;;;;;;;0.75;0.75;;;;;24.52;45.01;101805.47;4997042;28;45427;-77
2022/06/10 12:28:31;;;;;;;;;0.50;0.50;;;;;24.41;45.13;101815.66;5015125;28;45427;-76
2022/06/10 12:31:07;;;;;;;;;2.75;1.00;;;;;24.23;45.54;101801.69;5018303;28;45305;-77
2022/06/10 12:33:52;;;;;;;;;0.75;0.75;;;;;24.22;45.97;101818.25;5021019;28;45281;-77
2022/06/10 12:36:26;;;;;;;;;3.75;1.00;;;;;24.17;46.46;101817.72;5014100;28;46362;-76
2022/06/10 12:38:53;;;;;;;;;1.00;1.00;;;;;24.06;46.37;101818.66;5015021;28;46176;-78
2022/06/10 12:41:35;;;;;;;;;4.00;1.50;;;;;24.09;46.35;101807.44;5014031;28;45443;-78
2022/06/10 12:44:05;;;;;;;;;2.00;1.00;;;;;24.17;46.31;101828.69;5020769;28;45697;-77
2022/06/10 12:46:47;;;;;;;;;0.75;0.75;;;;;24.04;46.01;101826.16;5034880;28;45734;-78
2022/06/10 12:49:28;;;;;;;;;1.00;1.00;;;;;24.01;46.13;101818.16;5036288;28;45356;-77
2022/06/10 12:52:21;;;;;;;;;0.75;0.75;;;;;24.03;47.93;101827.13;5036799;28;45559;-77
2022/06/10 12:54:49;;;;;;;;;1.50;1.50;;;;;24.06;46.70;101813.19;5035773;28;45396;-76
2022/06/10 12:57:34;;;;;;;;;1.75;1.75;;;;;24.04;46.85;101826.16;5016552;28;46546;-77
2022/06/10 13:00:17;;;;;;;;;1.00;1.00;;;;;23.98;46.79;101818.47;5034567;28;45367;-78
2022/06/10 13:02:59;;;;;;;;;0.00;0.00;;;;;23.83;47.08;101825.22;5034596;28;45547;-77
2022/06/10 13:05:31;;;;;;;;;2.00;1.50;;;;;23.85;47.05;101812.25;5034578;28;45518;-77
2022/06/10 13:07:57;;;;;;;;;0.50;0.50;;;;;23.74;47.04;101794.88;5034498;28;45442;-77
2022/06/10 13:10:43;;;;;;;;;1.50;1.00;;;;;23.80;47.77;101792.63;5033586;28;45373;-77
2022/06/10 13:13:10;;;;;;;;;1.00;1.00;;;;;23.98;47.35;101794.66;5033098;28;45283;-77
2022/06/10 13:15:36;;;;;;;;;0.50;0.50;;;;;24.02;46.74;101820.78;5034214;28;45436;-77
2022/06/10 13:18:21;;;;;;;;;1.00;1.00;;;;;23.88;47.27;101795.59;5034313;28;45501;-77
2022/06/10 13:20:49;;;;;;;;;0.75;0.75;;;;;23.98;46.86;101811.09;5034055;28;45312;-76
2022/06/10 13:23:19;;;;;;;;;0.00;0.00;;;;;24.02;46.68;101808.97;5034251;28;45607;-77
2022/06/10 13:25:49;;;;;;;;;1.00;1.00;;;;;24.17;46.36;101812.25;5034174;28;45466;-77
2022/06/10 13:28:23;;;;;;;;;1.75;1.75;;;;;24.08;46.40;101800.19;5034134;28;45332;-79
2022/06/10 13:30:49;;;;;;;;;2.00;1.00;;;;;24.20;46.86;101815.59;5033285;28;45984;-76
2022/06/10 13:33:17;;;;;;;;;1.00;1.00;;;;;24.17;46.10;101810.38;5030334;28;45356;-76
2022/06/10 13:35:45;;;;;;;;;1.75;1.75;;;;;24.26;45.96;101811.47;5016182;28;45305;-78
2022/06/10 13:38:21;;;;;;;;;0.75;0.75;;;;;24.23;46.22;101817.25;5013951;28;45344;-75
2022/06/10 13:40:51;;;;;;;;;0.50;0.50;;;;;24.30;46.39;101810.22;5014038;28;45491;-77
2022/06/10 13:43:30;;;;;;;;;2.00;1.00;;;;;24.36;46.29;101805.06;5014771;28;45503;-77
2022/06/10 13:45:55;;;;;;;;;2.00;0.75;;;;;24.37;46.04;101808.69;4997576;28;45380;-76
2022/06/10 13:48:24;;;;;;;;;1.75;1.75;;;;;24.46;45.84;101802.41;5018596;28;45242;-77
2022/06/10 13:51:24;;;;;;;;;1.00;1.00;;;;;24.60;45.60;101799.31;5019360;28;45365;-77
2022/06/10 13:54:03;;;;;;;;;1.00;1.00;;;;;24.70;45.23;101802.97;5017808;28;45493;-78
2022/06/10 13:56:36;;;;;;;;;2.00;2.00;;;;;24.70;46.17;101799.38;5015262;28;45547;-77
2022/06/10 13:59:03;;;;;;;;;2.00;2.00;;;;;24.73;45.78;101794.50;5014497;28;45559;-77
2022/06/10 14:01:32;;;;;;;;;1.75;1.75;;;;;24.69;46.08;101795.75;5013969;28;46025;-77
2022/06/10 14:04:07;;;;;;;;;2.00;2.00;;;;;24.61;46.29;101802.91;5023180;28;45448;-77
2022/06/10 14:06:45;;;;;;;;;2.25;2.00;;;;;24.49;46.31;101788.44;5020251;28;46560;-79
2022/06/10 14:09:17;;;;;;;;;2.00;2.00;;;;;24.58;46.28;101803.22;5033686;28;45530;-78
2022/06/10 14:11:44;;;;;;;;;1.75;1.00;;;;;24.44;46.44;101805.28;5015581;28;46402;-79
2022/06/10 14:14:10;;;;;;;;;2.00;2.00;;;;;24.34;46.78;101801.59;5033566;28;45191;-78
2022/06/10 14:16:35;;;;;;;;;1.00;1.00;;;;;24.23;46.48;101801.69;5034033;28;45280;-76
2022/06/10 14:19:06;;;;;;;;;2.50;1.00;;;;;24.24;46.80;101803.41;5032231;28;45612;-77
2022/06/10 14:21:35;;;;;;;;;3.75;2.00;;;;;24.27;46.01;101797.66;5033098;28;45537;-78
2022/06/10 14:24:03;;;;;;;;;1.25;1.25;;;;;24.24;46.33;101802.56;5034074;28;45250;-78
2022/06/10 14:26:29;;;;;;;;;1.25;1.00;;;;;24.16;46.70;101794.94;5037881;28;45356;-76
2022/06/10 14:29:22;;;;;;;;;1.25;1.25;;;;;24.24;46.66;101800.69;5036439;28;45471;-78
2022/06/10 14:31:57;;;;;;;;;3.00;1.50;;;;;24.31;46.78;101803.75;5036931;28;45436;-78
2022/06/10 14:34:24;;;;;;;;;2.00;2.00;;;;;24.23;46.09;101809.03;5024610;28;45459;-79
2022/06/10 14:37:05;;;;;;;;;1.75;1.75;;;;;24.05;46.97;101787.66;5037148;28;45380;-77
2022/06/10 14:39:32;;;;;;;;;2.25;1.50;;;;;24.15;47.01;101795.97;5037991;28;45329;-78
2022/06/10 14:42:03;;;;;;;;;1.50;1.50;;;;;24.10;47.29;101792.72;5038348;28;45418;-79
2022/06/10 14:44:49;;;;;;;;;1.00;1.00;;;;;24.06;47.49;101789.41;5038157;28;45463;-77
2022/06/10 14:47:22;;;;;;;;;3.00;2.00;;;;;24.07;47.13;101795.75;5037553;28;45386;-78
2022/06/10 14:50:13;;;;;;;;;1.00;1.00;;;;;23.96;47.70;101788.44;5036545;28;45597;-79
2022/06/10 14:52:45;;;;;;;;;1.25;1.25;;;;;23.88;48.36;101784.63;5036570;28;46306;-79
2022/06/10 14:55:28;;;;;;;;;1.00;1.00;;;;;23.83;48.60;101787.75;5036332;28;45356;-77
2022/06/10 14:57:55;;;;;;;;;3.25;1.00;;;;;23.97;48.80;101795.66;5036672;28;45254;-77
2022/06/10 15:00:22;;;;;;;;;2.00;2.00;;;;;24.02;48.77;101787.91;5036525;28;45524;-77
2022/06/10 15:02:48;;;;;;;;;1.50;1.50;;;;;24.16;49.07;101794.94;5035921;28;45994;-78
2022/06/10 15:08:04;;;;;;;;;3.00;3.00;;;;;24.22;48.64;101797.19;5036726;28;45517;-77
2022/06/10 15:10:33;;;;;;;;;2.00;2.00;;;;;24.03;49.28;101784.19;5036087;28;45530;-77
2022/06/10 15:12:59;;;;;;;;;0.00;0.00;;;;;24.04;48.67;101785.06;5036258;28;46134;-77
2022/06/10 15:15:25;;;;;;;;;5.75;2.75;;;;;23.98;49.54;101789.19;5031347;28;45364;-77
2022/06/10 15:17:50;;;;;;;;;2.50;1.50;;;;;24.04;49.46;101798.75;5036603;28;45383;-77
2022/06/10 15:20:17;;;;;;;;;3.00;2.50;;;;;24.24;49.64;101803.41;5037041;28;45383;-76
2022/06/10 15:22:53;;;;;;;;;1.50;1.50;;;;;24.48;49.04;101798.53;5019401;28;45258;-77
2022/06/10 15:25:29;;;;;;;;;2.00;2.00;;;;;24.67;48.39;101796.91;5019113;28;45357;-77
2022/06/10 15:27:57;;;;;;;;;3.50;2.00;;;;;24.70;48.06;101808.47;5036322;28;45483;-78
2022/06/10 15:30:26;;;;;;;;;3.00;3.00;;;;;24.73;48.30;101799.97;5036094;28;45317;-78
2022/06/10 15:32:52;;;;;;;;;1.00;1.00;;;;;24.84;48.40;101790.75;5009717;28;47509;-77
2022/06/10 15:41:12;;;;;;;;;1.00;1.00;;;;;24.89;48.36;101792.13;5037243;28;45459;-78
2022/06/10 15:43:38;;;;;;;;;2.25;2.25;;;;;24.79;48.17;101793.06;5035505;28;46556;-76
2022/06/10 15:46:23;;;;;;;;;1.75;1.75;;;;;24.72;48.23;101784.53;5036111;28;45412;-78
2022/06/10 15:48:49;;;;;;;;;3.00;1.75;;;;;24.76;48.04;101777.75;5035313;28;45571;-78
2022/06/10 15:51:43;;;;;;;;;2.00;2.00;;;;;24.84;48.47;101788.91;5035432;28;45505;-76
2022/06/10 15:54:22;;;;;;;;;3.50;3.00;;;;;24.95;48.13;101792.59;5012701;28;46183;-77
2022/06/10 15:57:07;;;;;;;;;2.50;2.25;;;;;25.08;47.85;101785.88;5035504;28;45438;-77
2022/06/10 15:59:35;;;;;;;;;3.50;3.00;;;;;25.11;47.71;101781.97;5035357;28;45360;-77
2022/06/10 16:02:00;;;;;;;;;1.75;1.75;;;;;25.23;47.10;101789.97;5035830;28;45606;-77
2022/06/10 16:04:28;;;;;;;;;3.00;3.00;;;;;25.31;46.88;101789.25;5035188;28;45958;-77
2022/06/10 16:06:53;;;;;;;;;2.00;1.00;;;;;25.56;45.96;101791.47;5035881;28;45390;-76
2022/06/10 16:09:20;;;;;;;;;3.75;2.75;;;;;25.69;46.33;101795.88;5035792;28;45527;-77
2022/06/10 16:12:57;;;;;;;;;2.25;2.00;;;;;25.75;45.86;101792.56;5036186;28;45408;-77
2022/06/10 16:14:35;;;;;;;;;1.00;1.00;;;;;25.54;45.95;101778.91;5035466;28;45432;-78
2022/06/10 16:17:03;;;;;;;;;2.00;2.00;;;;;25.56;46.00;101785.13;5035511;28;45396;-76
2022/06/10 16:19:29;;;;;;;;;1.00;1.00;;;;;25.37;46.21;101780.44;5035803;28;45392;-78
2022/06/10 16:21:55;;;;;;;;;1.75;1.75;;;;;25.30;46.88;101775.66;5035438;28;45519;-77
2022/06/10 16:24:20;;;;;;;;;2.00;2.00;;;;;25.32;46.17;101769.03;5034452;28;45931;-77
2022/06/10 16:26:46;;;;;;;;;2.00;2.00;;;;;25.53;46.37;101779.91;5024218;28;45438;-77
2022/06/10 16:29:16;;;;;;;;;2.50;2.50;;;;;25.60;45.96;101786.63;5016727;28;45405;-76
2022/06/10 16:31:42;;;;;;;;;2.00;2.00;;;;;25.75;45.37;101773.34;5027476;28;45300;-76
2022/06/10 16:34:11;;;;;;;;;1.50;1.50;;;;;26.04;44.93;101757.69;5038093;28;46218;-78
2022/06/10 16:36:37;;;;;;;;;1.00;1.00;;;;;26.31;45.05;101760.59;5039670;28;45459;-81
2022/06/10 16:39:04;;;;;;;;;2.00;1.75;;;;;26.52;43.77;101757.66;5035902;28;45429;-79
2022/06/10 16:41:38;;;;;;;;;2.50;2.50;;;;;26.49;44.48;101733.19;5037320;28;45387;-86